createdAt,value
2018-04-28T00:00:50.316Z,0.00
2018-04-28T00:01:50.326Z,0.00
2018-04-28T00:02:51.305Z,0.00
2018-04-28T00:03:50.321Z,0.00
2018-04-28T00:04:50.328Z,0.00
2018-04-28T00:05:50.326Z,0.00
2018-04-28T00:06:50.333Z,0.00
2018-04-28T00:07:50.345Z,0.00
2018-04-28T00:08:50.336Z,0.00
2018-04-28T00:09:50.335Z,0.00
2018-04-28T00:10:50.339Z,0.00
2018-04-28T00:11:50.345Z,0.00
2018-04-28T00:12:50.346Z,0.00
2018-04-28T00:13:50.351Z,0.00
2018-04-28T00:14:50.354Z,0.00
2018-04-28T00:15:50.356Z,0.00
2018-04-28T00:16:50.368Z,0.00
2018-04-28T00:17:50.359Z,0.00
2018-04-28T00:18:50.358Z,0.00
2018-04-28T00:19:50.368Z,0.00
2018-04-28T00:20:50.371Z,0.00
2018-04-28T00:21:50.370Z,0.00
2018-04-28T00:22:51.310Z,0.00
2018-04-28T00:23:50.377Z,0.00
2018-04-28T00:24:50.382Z,0.00
2018-04-28T00:25:50.377Z,0.00
2018-04-28T00:26:50.380Z,0.00
2018-04-28T00:27:50.391Z,0.00
2018-04-28T00:28:50.385Z,0.00
2018-04-28T00:29:50.395Z,0.00
2018-04-28T00:30:50.394Z,0.00
2018-04-28T00:31:50.400Z,0.00
2018-04-28T00:32:50.401Z,0.00
2018-04-28T00:33:50.401Z,0.00
2018-04-28T00:34:50.403Z,0.00
2018-04-28T00:35:50.411Z,0.00
2018-04-28T00:36:50.411Z,0.00
2018-04-28T00:37:50.408Z,0.00
2018-04-28T00:39:50.423Z,0.00
2018-04-28T00:40:50.419Z,0.00
2018-04-28T00:41:50.427Z,0.00
2018-04-28T00:42:50.431Z,0.00
2018-04-28T00:43:50.431Z,0.00
2018-04-28T00:44:50.436Z,0.00
2018-04-28T00:45:50.434Z,0.00
2018-04-28T00:46:50.440Z,0.00
2018-04-28T00:47:50.442Z,0.00
2018-04-28T00:48:57.317Z,0.00
2018-04-28T00:49:52.244Z,0.00
2018-04-28T00:51:50.459Z,0.00
2018-04-28T00:52:50.461Z,0.00
2018-04-28T00:53:50.461Z,0.00
2018-04-28T00:54:50.473Z,0.00
2018-04-28T00:55:50.458Z,0.00
2018-04-28T00:56:50.470Z,0.00
2018-04-28T00:57:50.463Z,0.00
2018-04-28T00:58:50.472Z,0.00
2018-04-28T00:59:50.472Z,0.00
2018-04-28T01:00:50.478Z,0.00
2018-04-28T01:01:50.478Z,0.00
2018-04-28T01:02:50.489Z,0.00
2018-04-28T01:03:50.490Z,0.00
2018-04-28T01:04:50.501Z,0.00
2018-04-28T01:05:50.495Z,0.00
2018-04-28T01:06:50.515Z,0.00
2018-04-28T01:07:50.501Z,0.00
2018-04-28T01:08:50.497Z,0.00
2018-04-28T01:09:50.501Z,0.00
2018-04-28T01:10:50.501Z,0.00
2018-04-28T01:11:50.510Z,0.00
2018-04-28T01:12:50.506Z,0.00
2018-04-28T01:13:50.516Z,0.00
2018-04-28T01:14:50.512Z,0.00
2018-04-28T01:15:50.520Z,0.00
2018-04-28T01:16:50.521Z,0.00
2018-04-28T01:17:50.525Z,0.00
2018-04-28T01:18:50.528Z,0.00
2018-04-28T01:19:50.523Z,0.00
2018-04-28T01:20:50.536Z,0.00
2018-04-28T01:21:50.536Z,0.00
2018-04-28T01:22:50.536Z,0.00
2018-04-28T01:23:50.537Z,0.00
2018-04-28T01:24:50.544Z,0.00
2018-04-28T01:25:50.543Z,0.00
2018-04-28T01:26:50.544Z,0.00
2018-04-28T01:27:50.553Z,0.00
2018-04-28T01:28:50.561Z,0.00
2018-04-28T01:29:50.556Z,0.00
2018-04-28T01:30:50.555Z,0.00
2018-04-28T01:31:50.565Z,0.00
2018-04-28T01:32:50.565Z,0.00
2018-04-28T01:33:50.564Z,0.00
2018-04-28T01:34:50.569Z,0.00
2018-04-28T01:35:50.570Z,0.00
2018-04-28T01:36:50.579Z,0.00
2018-04-28T01:37:50.576Z,0.00
2018-04-28T01:38:50.584Z,0.00
2018-04-28T01:39:50.579Z,0.00
2018-04-28T01:40:50.591Z,0.00
2018-04-28T01:41:50.585Z,0.00
2018-04-28T01:42:50.590Z,0.00
2018-04-28T01:43:50.603Z,0.00
2018-04-28T01:44:50.593Z,0.00
2018-04-28T01:45:50.599Z,0.00
2018-04-28T01:46:50.600Z,0.00
2018-04-28T01:47:50.635Z,0.00
2018-04-28T01:48:50.607Z,0.00
2018-04-28T01:49:50.611Z,0.00
2018-04-28T01:50:50.618Z,0.00
2018-04-28T01:51:50.612Z,0.00
2018-04-28T01:52:50.631Z,0.00
2018-04-28T01:53:50.621Z,0.00
2018-04-28T01:54:50.646Z,0.00
2018-04-28T01:55:50.625Z,0.00
2018-04-28T01:56:50.635Z,0.00
2018-04-28T01:57:50.635Z,0.00
2018-04-28T01:58:50.640Z,0.00
2018-04-28T01:59:50.639Z,0.00
2018-04-28T02:00:50.647Z,0.00
2018-04-28T02:01:50.646Z,0.00
2018-04-28T02:02:50.642Z,0.00
2018-04-28T02:03:50.654Z,0.00
2018-04-28T02:04:50.654Z,0.00
2018-04-28T02:05:50.653Z,0.00
2018-04-28T02:06:50.662Z,0.00
2018-04-28T02:07:50.664Z,0.00
2018-04-28T02:08:50.670Z,0.00
2018-04-28T02:09:50.665Z,0.00
2018-04-28T02:10:50.674Z,0.00
2018-04-28T02:11:50.671Z,0.00
2018-04-28T02:12:50.684Z,0.00
2018-04-28T02:13:50.675Z,0.00
2018-04-28T02:14:50.685Z,0.00
2018-04-28T02:15:50.687Z,0.00
2018-04-28T02:16:50.690Z,0.00
2018-04-28T02:17:50.707Z,0.00
2018-04-28T02:18:50.705Z,0.00
2018-04-28T02:19:50.719Z,0.00
2018-04-28T02:20:50.704Z,0.00
2018-04-28T02:21:50.698Z,0.00
2018-04-28T02:22:50.707Z,0.00
2018-04-28T02:23:50.703Z,0.00
2018-04-28T02:24:50.713Z,0.00
2018-04-28T02:25:50.709Z,0.00
2018-04-28T02:26:50.716Z,0.00
2018-04-28T02:27:50.719Z,0.00
2018-04-28T02:28:50.739Z,0.00
2018-04-28T02:29:50.723Z,0.00
2018-04-28T02:30:50.743Z,0.00
2018-04-28T02:31:50.735Z,0.00
2018-04-28T02:32:50.731Z,0.00
2018-04-28T02:33:50.729Z,0.00
2018-04-28T02:34:50.739Z,0.00
2018-04-28T02:35:50.744Z,0.00
2018-04-28T02:36:50.740Z,0.00
2018-04-28T02:37:50.751Z,0.00
2018-04-28T02:38:50.749Z,0.00
2018-04-28T02:39:50.751Z,0.00
2018-04-28T02:40:50.756Z,0.00
2018-04-28T02:41:50.763Z,0.00
2018-04-28T02:42:50.766Z,0.00
2018-04-28T02:43:50.758Z,0.00
2018-04-28T02:44:50.763Z,0.00
2018-04-28T02:45:50.775Z,0.00
2018-04-28T02:46:50.774Z,0.00
2018-04-28T02:47:50.778Z,0.00
2018-04-28T02:48:50.778Z,0.00
2018-04-28T02:49:50.789Z,0.00
2018-04-28T02:50:50.780Z,0.00
2018-04-28T02:51:50.783Z,0.00
2018-04-28T02:52:50.796Z,0.00
2018-04-28T02:53:50.785Z,0.00
2018-04-28T02:54:50.792Z,0.00
2018-04-28T02:55:50.810Z,0.00
2018-04-28T02:56:50.806Z,0.00
2018-04-28T02:57:50.796Z,0.00
2018-04-28T02:58:50.797Z,0.00
2018-04-28T02:59:50.810Z,0.00
2018-04-28T03:00:50.813Z,0.00
2018-04-28T03:01:50.811Z,0.00
2018-04-28T03:02:50.819Z,0.00
2018-04-28T03:03:50.821Z,0.00
2018-04-28T03:04:50.819Z,0.00
2018-04-28T03:05:50.829Z,0.00
2018-04-28T03:06:50.820Z,0.00
2018-04-28T03:07:50.831Z,0.00
2018-04-28T03:08:50.830Z,0.00
2018-04-28T03:09:50.836Z,0.00
2018-04-28T03:10:50.831Z,0.00
2018-04-28T03:11:50.841Z,0.00
2018-04-28T03:12:50.842Z,0.00
2018-04-28T03:13:50.853Z,0.00
2018-04-28T03:14:50.847Z,0.00
2018-04-28T03:15:50.852Z,0.00
2018-04-28T03:16:50.855Z,0.00
2018-04-28T03:17:50.848Z,0.00
2018-04-28T03:18:50.858Z,0.00
2018-04-28T03:19:50.865Z,0.00
2018-04-28T03:20:50.868Z,0.00
2018-04-28T03:21:50.870Z,0.00
2018-04-28T03:22:50.863Z,0.00
2018-04-28T03:23:50.870Z,0.00
2018-04-28T03:24:50.880Z,4.00
2018-04-28T03:25:50.870Z,4.00
2018-04-28T03:26:50.877Z,4.00
2018-04-28T03:27:51.855Z,4.00
2018-04-28T03:28:50.883Z,0.00
2018-04-28T03:29:50.885Z,4.00
2018-04-28T03:30:50.883Z,0.00
2018-04-28T03:31:50.896Z,0.00
2018-04-28T03:32:50.890Z,4.00
2018-04-28T03:33:50.900Z,0.00
2018-04-28T03:34:50.902Z,0.00
2018-04-28T03:35:50.895Z,4.00
2018-04-28T03:36:50.901Z,4.00
2018-04-28T03:37:50.902Z,4.00
2018-04-28T03:38:50.907Z,4.00
2018-04-28T03:39:50.915Z,8.00
2018-04-28T03:40:50.909Z,8.00
2018-04-28T03:41:50.920Z,8.00
2018-04-28T03:42:50.919Z,8.00
2018-04-28T03:43:50.925Z,8.00
2018-04-28T03:44:50.925Z,12.00
2018-04-28T03:45:50.924Z,16.00
2018-04-28T03:46:50.933Z,12.00
2018-04-28T03:47:50.927Z,16.00
2018-04-28T03:48:50.938Z,16.00
2018-04-28T03:49:50.933Z,20.00
2018-04-28T03:50:50.936Z,24.00
2018-04-28T03:51:50.948Z,28.00
2018-04-28T03:52:50.951Z,32.00
2018-04-28T03:53:50.956Z,40.00
2018-04-28T03:54:50.947Z,40.00
2018-04-28T03:55:50.948Z,48.00
2018-04-28T03:56:50.963Z,52.00
2018-04-28T03:57:50.953Z,60.00
2018-04-28T03:58:50.965Z,68.00
2018-04-28T03:59:50.958Z,76.00
2018-04-28T04:00:50.963Z,88.00
2018-04-28T04:01:50.973Z,96.00
2018-04-28T04:02:50.972Z,104.00
2018-04-28T04:03:50.972Z,112.00
2018-04-28T04:04:50.977Z,124.00
2018-04-28T04:05:50.989Z,128.00
2018-04-28T04:06:50.995Z,140.00
2018-04-28T04:07:50.981Z,148.00
2018-04-28T04:08:50.986Z,160.00
2018-04-28T04:09:50.986Z,172.00
2018-04-28T04:10:50.995Z,184.00
2018-04-28T04:11:50.994Z,204.00
2018-04-28T04:12:51.004Z,220.00
2018-04-28T04:13:51.020Z,236.00
2018-04-28T04:14:51.017Z,252.00
2018-04-28T04:15:51.001Z,276.00
2018-04-28T04:16:51.026Z,296.00
2018-04-28T04:17:51.012Z,320.00
2018-04-28T04:18:51.195Z,340.00
2018-04-28T04:19:51.043Z,364.00
2018-04-28T04:20:51.063Z,388.00
2018-04-28T04:21:51.018Z,416.00
2018-04-28T04:22:51.029Z,448.00
2018-04-28T04:23:51.024Z,480.00
2018-04-28T04:24:51.032Z,524.00
2018-04-28T04:25:51.024Z,568.00
2018-04-28T04:26:51.034Z,616.00
2018-04-28T04:27:51.038Z,660.00
2018-04-28T04:28:51.040Z,708.00
2018-04-28T04:29:51.057Z,764.00
2018-04-28T04:30:51.041Z,828.00
2018-04-28T04:31:51.087Z,892.00
2018-04-28T04:32:51.051Z,960.00
2018-04-28T04:33:51.052Z,1024.00
2018-04-28T04:34:51.058Z,1096.00
2018-04-28T04:35:51.064Z,1168.00
2018-04-28T04:36:51.076Z,1240.00
2018-04-28T04:37:51.084Z,1312.00
2018-04-28T04:38:51.088Z,1384.00
2018-04-28T04:39:51.087Z,1456.00
2018-04-28T04:40:51.085Z,1508.00
2018-04-28T04:41:51.101Z,1548.00
2018-04-28T04:42:51.153Z,1564.00
2018-04-28T04:43:51.087Z,1576.00
2018-04-28T04:44:51.124Z,1596.00
2018-04-28T04:45:51.096Z,1628.00
2018-04-28T04:46:51.094Z,1660.00
2018-04-28T04:47:51.088Z,1704.00
2018-04-28T04:48:51.196Z,1760.00
2018-04-28T04:49:51.109Z,1820.00
2018-04-28T04:50:51.101Z,1904.00
2018-04-28T04:51:51.102Z,2000.00
2018-04-28T04:52:51.111Z,2088.00
2018-04-28T04:53:51.110Z,2144.00
2018-04-28T04:54:51.122Z,2196.00
2018-04-28T04:55:51.116Z,2244.00
2018-04-28T04:56:51.130Z,2280.00
2018-04-28T04:57:51.121Z,2280.00
2018-04-28T04:58:51.126Z,2280.00
2018-04-28T04:59:51.125Z,2284.00
2018-04-28T05:00:51.132Z,2296.00
2018-04-28T05:01:51.132Z,2304.00
2018-04-28T05:02:51.143Z,2340.00
2018-04-28T05:03:51.153Z,2392.00
2018-04-28T05:04:51.143Z,2440.00
2018-04-28T05:05:51.156Z,2488.00
2018-04-28T05:06:51.170Z,2548.00
2018-04-28T05:07:51.154Z,2604.00
2018-04-28T05:08:51.156Z,2660.00
2018-04-28T05:09:51.160Z,2708.00
2018-04-28T05:10:51.166Z,2768.00
2018-04-28T05:11:51.172Z,2824.00
2018-04-28T05:12:51.172Z,2856.00
2018-04-28T05:13:51.172Z,2876.00
2018-04-28T05:14:51.174Z,2884.00
2018-04-28T05:15:51.180Z,2916.00
2018-04-28T05:16:51.188Z,2952.00
2018-04-28T05:17:51.182Z,3012.00
2018-04-28T05:18:51.189Z,3108.00
2018-04-28T05:19:51.188Z,3192.00
2018-04-28T05:20:51.195Z,3268.00
2018-04-28T05:21:51.204Z,3336.00
2018-04-28T05:22:51.199Z,3420.00
2018-04-28T05:23:51.217Z,3560.00
2018-04-28T05:24:51.214Z,3676.00
2018-04-28T05:25:51.212Z,3840.00
2018-04-28T05:26:51.218Z,4024.00
2018-04-28T05:27:51.228Z,4236.00
2018-04-28T05:28:51.239Z,4484.00
2018-04-28T05:29:51.234Z,4712.00
2018-04-28T05:30:51.236Z,4820.00
2018-04-28T05:31:51.239Z,4820.00
2018-04-28T05:32:51.235Z,4804.00
2018-04-28T05:33:51.246Z,4748.00
2018-04-28T05:34:51.246Z,4812.00
2018-04-28T05:35:51.275Z,4912.00
2018-04-28T05:36:51.254Z,5104.00
2018-04-28T05:37:51.257Z,5324.00
2018-04-28T05:38:51.288Z,5456.00
2018-04-28T05:39:51.268Z,5388.00
2018-04-28T05:40:51.271Z,5524.00
2018-04-28T05:41:51.283Z,5616.00
2018-04-28T05:42:51.279Z,5844.00
2018-04-28T05:43:51.279Z,7764.00
2018-04-28T05:44:51.287Z,9736.00
2018-04-28T05:45:51.288Z,12748.00
2018-04-28T05:46:51.298Z,15488.00
2018-04-28T05:47:51.297Z,16288.00
2018-04-28T05:48:51.307Z,11272.00
2018-04-28T05:49:51.304Z,19136.00
2018-04-28T05:50:51.316Z,9048.00
2018-04-28T05:51:51.317Z,9272.00
2018-04-28T05:52:51.329Z,8048.00
2018-04-28T05:53:51.323Z,14880.00
2018-04-28T05:54:51.334Z,16928.00
2018-04-28T05:55:51.337Z,7000.00
2018-04-28T05:56:51.347Z,9264.00
2018-04-28T05:57:51.432Z,12064.00
2018-04-28T05:58:51.359Z,15552.00
2018-04-28T05:59:51.371Z,15712.00
2018-04-28T06:00:51.372Z,15904.00
2018-04-28T06:01:51.382Z,15840.00
2018-04-28T06:02:51.374Z,16768.00
2018-04-28T06:03:51.397Z,16192.00
2018-04-28T06:04:51.406Z,18400.00
2018-04-28T06:05:51.407Z,18816.00
2018-04-28T06:06:51.397Z,16320.00
2018-04-28T06:07:51.427Z,14976.00
2018-04-28T06:08:51.412Z,14188.00
2018-04-28T06:09:51.475Z,14164.00
2018-04-28T06:10:51.433Z,11212.00
2018-04-28T06:11:51.439Z,9116.00
2018-04-28T06:12:51.448Z,15552.00
2018-04-28T06:13:51.458Z,16224.00
2018-04-28T06:14:51.460Z,19392.00
2018-04-28T06:15:51.466Z,21568.00
2018-04-28T06:16:51.476Z,21472.00
2018-04-28T06:17:51.480Z,24320.00
2018-04-28T06:18:51.508Z,26400.00
2018-04-28T06:19:51.528Z,16128.00
2018-04-28T06:20:51.517Z,16704.00
2018-04-28T06:21:51.512Z,13488.00
2018-04-28T06:22:51.538Z,10040.00
2018-04-28T06:23:51.964Z,8452.00
2018-04-28T06:25:51.623Z,6060.00
2018-04-28T06:26:51.560Z,5444.00
2018-04-28T06:30:34.019Z,4700.00
2018-04-28T06:31:33.039Z,4740.00
2018-04-28T06:33:25.090Z,4904.00
2018-04-28T06:34:25.107Z,5088.00
2018-04-28T06:36:18.048Z,5928.00
2018-04-28T06:37:18.043Z,6304.00
2018-04-28T06:39:10.990Z,7588.00
2018-04-28T06:40:11.000Z,9240.00
2018-04-28T06:42:03.948Z,21120.00
2018-04-28T06:43:03.951Z,26912.00
2018-04-28T06:45:00.931Z,24704.00
2018-04-28T06:46:00.901Z,26496.00
2018-04-28T06:47:00.912Z,25536.00
2018-04-28T06:48:00.919Z,24864.00
2018-04-28T06:49:00.930Z,13776.00
2018-04-28T06:50:00.937Z,22688.00
2018-04-28T06:51:00.990Z,16416.00
2018-04-28T06:52:00.955Z,13304.00
2018-04-28T06:53:01.082Z,12728.00
2018-04-28T06:54:00.974Z,10808.00
2018-04-28T06:55:00.985Z,18560.00
2018-04-28T06:56:00.995Z,26272.00
2018-04-28T06:57:01.003Z,27072.00
2018-04-28T06:58:01.010Z,26272.00
2018-04-28T06:59:01.022Z,26208.00
2018-04-28T07:00:01.032Z,25120.00
2018-04-28T07:01:01.041Z,24928.00
2018-04-28T07:02:01.047Z,30304.00
2018-04-28T07:03:01.066Z,31520.00
2018-04-28T07:04:01.070Z,34656.00
2018-04-28T07:05:01.088Z,35232.00
2018-04-28T07:06:54.038Z,31776.00
2018-04-28T07:07:54.025Z,34784.00
2018-04-28T07:09:46.994Z,35360.00
2018-04-28T07:10:47.018Z,35328.00
2018-04-28T07:12:39.955Z,32448.00
2018-04-28T07:13:39.931Z,28160.00
2018-04-28T07:15:32.876Z,27072.00
2018-04-28T07:16:32.894Z,30400.00
2018-04-28T07:18:25.859Z,31552.00
2018-04-28T07:19:25.846Z,33760.00
2018-04-28T07:21:18.838Z,33664.00
2018-04-28T07:22:18.800Z,24480.00
2018-04-28T07:24:11.889Z,26112.00
2018-04-28T07:25:11.767Z,21952.00
2018-04-28T07:27:04.806Z,22880.00
2018-04-28T07:28:04.826Z,22144.00
2018-04-28T07:29:57.852Z,25216.00
2018-04-28T07:30:57.788Z,29024.00
2018-04-28T07:32:50.786Z,31136.00
2018-04-28T07:33:50.733Z,31392.00
2018-04-28T07:35:43.761Z,32800.00
2018-04-28T07:36:43.701Z,28864.00
2018-04-28T07:38:36.655Z,32096.00
2018-04-28T07:39:36.644Z,36320.00
2018-04-28T07:41:29.635Z,27584.00
2018-04-28T07:42:29.613Z,23904.00
2018-04-28T07:44:22.570Z,23040.00
2018-04-28T07:45:22.576Z,24416.00
2018-04-28T07:47:15.626Z,16352.00
2018-04-28T07:48:15.526Z,13932.00
2018-04-28T07:50:08.484Z,13056.00
2018-04-28T07:51:08.481Z,13628.00
2018-04-28T07:53:01.479Z,16224.00
2018-04-28T07:54:01.501Z,14916.00
2018-04-28T07:55:54.388Z,13456.00
2018-04-28T07:56:54.394Z,13296.00
2018-04-28T07:58:47.378Z,14752.00
2018-04-28T07:59:47.359Z,18624.00
2018-04-28T08:01:40.844Z,18464.00
2018-04-28T08:02:40.817Z,16032.00
2018-04-28T08:04:33.860Z,16096.00
2018-04-28T08:05:33.779Z,14488.00
2018-04-28T08:07:26.729Z,12432.00
2018-04-28T08:08:26.734Z,15968.00
2018-04-28T08:10:19.717Z,9356.00
2018-04-28T08:11:19.698Z,10856.00
2018-04-28T08:13:12.641Z,8320.00
2018-04-28T08:14:12.658Z,8628.00
2018-04-28T08:16:05.651Z,7512.00
2018-04-28T08:17:05.620Z,6992.00
2018-04-28T08:18:58.613Z,5664.00
2018-04-28T08:19:58.606Z,5080.00
2018-04-28T08:21:51.642Z,4444.00
2018-04-28T08:22:51.616Z,4332.00
2018-04-28T08:24:44.564Z,3920.00
2018-04-28T08:25:44.580Z,3704.00
2018-04-28T08:27:38.129Z,3584.00
2018-04-28T08:28:38.068Z,3572.00
2018-04-28T08:30:31.001Z,3648.00
2018-04-28T08:31:31.997Z,3624.00
2018-04-28T08:32:31.007Z,3636.00
2018-04-28T08:34:23.950Z,3732.00
2018-04-28T08:35:23.909Z,3668.00
2018-04-28T08:37:16.959Z,3660.00
2018-04-28T08:38:16.814Z,3680.00
2018-04-28T08:40:09.805Z,3976.00
2018-04-28T08:41:09.779Z,4140.00
2018-04-28T08:43:02.721Z,4328.00
2018-04-28T08:44:02.733Z,4492.00
2018-04-28T08:45:55.733Z,4928.00
2018-04-28T08:46:55.719Z,5212.00
2018-04-28T08:47:55.735Z,5448.00
2018-04-28T08:48:55.735Z,5652.00
2018-04-28T08:49:55.744Z,5692.00
2018-04-28T08:50:55.756Z,5956.00
2018-04-28T08:51:55.757Z,6352.00
2018-04-28T08:52:55.771Z,6608.00
2018-04-28T08:53:55.776Z,7048.00
2018-04-28T08:54:55.778Z,7484.00
2018-04-28T08:55:55.791Z,8372.00
2018-04-28T08:56:55.796Z,9172.00
2018-04-28T08:57:55.802Z,10240.00
2018-04-28T08:58:55.813Z,11212.00
2018-04-28T08:59:55.817Z,11272.00
2018-04-28T09:00:55.832Z,11104.00
2018-04-28T09:01:55.839Z,11844.00
2018-04-28T09:02:55.846Z,13280.00
2018-04-28T09:03:55.861Z,13368.00
2018-04-28T09:04:55.859Z,14804.00
2018-04-28T09:05:55.874Z,14132.00
2018-04-28T09:06:55.876Z,14556.00
2018-04-28T09:07:55.886Z,10856.00
2018-04-28T09:08:55.900Z,10104.00
2018-04-28T09:09:55.907Z,11444.00
2018-04-28T09:10:55.920Z,12548.00
2018-04-28T09:11:55.937Z,12344.00
2018-04-28T09:12:55.944Z,22240.00
2018-04-28T09:13:55.950Z,13124.00
2018-04-28T09:14:55.964Z,12688.00
2018-04-28T09:15:55.973Z,11332.00
2018-04-28T09:16:55.971Z,11016.00
2018-04-28T09:17:55.989Z,11788.00
2018-04-28T09:18:55.996Z,25408.00
2018-04-28T09:19:56.003Z,22272.00
2018-04-28T09:20:56.018Z,21376.00
2018-04-28T09:21:56.033Z,21824.00
2018-04-28T09:22:56.064Z,18080.00
2018-04-28T09:23:56.049Z,12464.00
2018-04-28T09:24:56.099Z,11056.00
2018-04-28T09:25:56.076Z,12728.00
2018-04-28T09:26:56.074Z,15480.00
2018-04-28T09:27:56.097Z,14588.00
2018-04-28T09:28:56.106Z,19072.00
2018-04-28T09:29:56.114Z,16544.00
2018-04-28T09:30:56.133Z,16320.00
2018-04-28T09:31:56.141Z,19584.00
2018-04-28T09:32:56.157Z,20992.00
2018-04-28T09:33:56.167Z,19200.00
2018-04-28T09:34:56.226Z,13368.00
2018-04-28T09:35:56.187Z,18304.00
2018-04-28T09:36:56.209Z,19808.00
2018-04-28T09:37:56.355Z,18848.00
2018-04-28T09:38:56.229Z,22240.00
2018-04-28T09:39:56.344Z,16736.00
2018-04-28T09:40:56.260Z,15188.00
2018-04-28T09:41:56.267Z,16000.00
2018-04-28T09:42:56.286Z,15936.00
2018-04-28T09:43:56.296Z,18752.00
2018-04-28T09:44:56.333Z,16192.00
2018-04-28T09:45:56.329Z,15216.00
2018-04-28T09:46:56.339Z,14136.00
2018-04-28T09:47:56.356Z,13616.00
2018-04-28T09:48:56.363Z,14104.00
2018-04-28T09:49:56.382Z,14064.00
2018-04-28T09:50:56.390Z,13892.00
2018-04-28T09:51:56.406Z,12380.00
2018-04-28T09:52:56.423Z,12572.00
2018-04-28T09:53:56.440Z,10376.00
2018-04-28T09:54:56.448Z,9784.00
2018-04-28T09:55:56.485Z,10632.00
2018-04-28T09:56:56.474Z,7984.00
2018-04-28T09:57:56.504Z,6512.00
2018-04-28T09:58:56.575Z,5660.00
2018-04-28T09:59:56.512Z,5220.00
2018-04-28T10:00:56.528Z,4952.00
2018-04-28T10:01:56.537Z,4940.00
2018-04-28T10:02:56.551Z,5048.00
2018-04-28T10:03:56.568Z,5236.00
2018-04-28T10:04:56.575Z,5424.00
2018-04-28T10:05:56.599Z,5600.00
2018-04-28T10:06:56.617Z,5784.00
2018-04-28T10:07:56.619Z,5912.00
2018-04-28T10:08:56.626Z,5928.00
2018-04-28T10:09:56.634Z,6052.00
2018-04-28T10:10:56.655Z,6076.00
2018-04-28T10:11:56.671Z,6244.00
2018-04-28T10:12:56.676Z,6512.00
2018-04-28T10:13:56.679Z,6680.00
2018-04-28T10:14:57.628Z,6620.00
2018-04-28T10:15:56.708Z,6532.00
2018-04-28T10:16:56.719Z,6816.00
2018-04-28T10:17:56.738Z,6972.00
2018-04-28T10:18:56.740Z,7292.00
2018-04-28T10:19:56.745Z,7072.00
2018-04-28T10:20:56.754Z,6672.00
2018-04-28T10:21:56.765Z,6076.00
2018-04-28T10:22:56.772Z,5496.00
2018-04-28T10:23:56.783Z,5124.00
2018-04-28T10:24:56.801Z,5280.00
2018-04-28T10:25:56.805Z,5672.00
2018-04-28T10:26:56.817Z,6056.00
2018-04-28T10:27:56.828Z,6340.00
2018-04-28T10:28:56.828Z,6512.00
2018-04-28T10:29:56.848Z,6608.00
2018-04-28T10:30:56.872Z,6696.00
2018-04-28T10:31:56.860Z,6864.00
2018-04-28T10:32:56.869Z,6964.00
2018-04-28T10:33:56.878Z,7068.00
2018-04-28T10:34:56.894Z,7216.00
2018-04-28T10:35:56.901Z,7224.00
2018-04-28T10:36:56.906Z,6896.00
2018-04-28T10:37:56.920Z,6568.00
2018-04-28T10:38:56.936Z,6208.00
2018-04-28T10:39:56.936Z,5884.00
2018-04-28T10:40:56.950Z,5540.00
2018-04-28T10:41:56.951Z,5312.00
2018-04-28T10:42:56.974Z,5228.00
2018-04-28T10:43:56.969Z,5212.00
2018-04-28T10:44:56.987Z,5140.00
2018-04-28T10:45:56.988Z,4924.00
2018-04-28T10:46:57.015Z,4624.00
2018-04-28T10:47:57.012Z,4476.00
2018-04-28T10:48:57.044Z,4428.00
2018-04-28T10:49:57.056Z,4512.00
2018-04-28T10:50:57.058Z,4724.00
2018-04-28T10:51:57.054Z,4960.00
2018-04-28T10:52:57.099Z,5292.00
2018-04-28T10:53:57.149Z,5660.00
2018-04-28T10:54:57.077Z,5868.00
2018-04-28T10:55:57.078Z,6100.00
2018-04-28T10:56:57.106Z,6364.00
2018-04-28T10:57:57.099Z,6628.00
2018-04-28T10:58:57.108Z,7048.00
2018-04-28T10:59:57.119Z,7304.00
2018-04-28T11:00:57.127Z,7492.00
2018-04-28T11:01:57.130Z,7736.00
2018-04-28T11:02:57.142Z,8212.00
2018-04-28T11:03:57.147Z,8316.00
2018-04-28T11:04:57.159Z,8372.00
2018-04-28T11:05:57.163Z,8600.00
2018-04-28T11:06:57.179Z,8680.00
2018-04-28T11:07:57.184Z,8908.00
2018-04-28T11:08:57.199Z,8704.00
2018-04-28T11:09:57.210Z,8388.00
2018-04-28T11:10:57.208Z,7908.00
2018-04-28T11:11:57.219Z,7268.00
2018-04-28T11:12:57.231Z,6824.00
2018-04-28T11:13:57.238Z,6328.00
2018-04-28T11:14:57.254Z,6036.00
2018-04-28T11:15:57.257Z,5936.00
2018-04-28T11:16:57.265Z,5812.00
2018-04-28T11:17:57.268Z,5520.00
2018-04-28T11:18:57.289Z,5192.00
2018-04-28T11:19:57.390Z,4860.00
2018-04-28T11:20:57.310Z,4664.00
2018-04-28T11:21:57.311Z,4532.00
2018-04-28T11:22:57.321Z,4496.00
2018-04-28T11:23:57.329Z,4472.00
2018-04-28T11:24:57.338Z,4472.00
2018-04-28T11:25:57.340Z,4572.00
2018-04-28T11:26:57.368Z,4788.00
2018-04-28T11:27:57.371Z,4880.00
2018-04-28T11:28:57.374Z,4936.00
2018-04-28T11:29:57.384Z,4976.00
2018-04-28T11:30:57.390Z,4952.00
2018-04-28T11:31:57.397Z,4920.00
2018-04-28T11:32:57.430Z,4872.00
2018-04-28T11:33:57.418Z,4840.00
2018-04-28T11:34:57.428Z,4832.00
2018-04-28T11:35:57.447Z,4884.00
2018-04-28T11:36:57.437Z,4988.00
2018-04-28T11:37:57.448Z,5176.00
2018-04-28T11:38:57.465Z,5496.00
2018-04-28T11:39:57.468Z,5872.00
2018-04-28T11:40:57.483Z,6152.00
2018-04-28T11:41:57.489Z,6424.00
2018-04-28T11:42:57.540Z,6828.00
2018-04-28T11:43:57.502Z,7412.00
2018-04-28T11:44:57.512Z,7968.00
2018-04-28T11:45:57.512Z,8168.00
2018-04-28T11:46:57.531Z,8044.00
2018-04-28T11:47:57.531Z,7876.00
2018-04-28T11:48:57.560Z,7924.00
2018-04-28T11:49:57.549Z,8020.00
2018-04-28T11:50:57.580Z,8052.00
2018-04-28T11:51:57.564Z,7960.00
2018-04-28T11:52:57.585Z,7820.00
2018-04-28T11:53:57.591Z,7576.00
2018-04-28T11:54:57.603Z,7236.00
2018-04-28T11:55:57.632Z,6852.00
2018-04-28T11:56:57.615Z,6584.00
2018-04-28T11:57:57.627Z,6444.00
2018-04-28T11:58:57.645Z,6460.00
2018-04-28T11:59:57.643Z,6448.00
2018-04-28T12:00:57.646Z,6424.00
2018-04-28T12:01:57.678Z,6364.00
2018-04-28T12:02:57.665Z,6232.00
2018-04-28T12:03:57.679Z,6000.00
2018-04-28T12:04:57.698Z,5780.00
2018-04-28T12:05:57.692Z,5632.00
2018-04-28T12:06:57.707Z,5644.00
2018-04-28T12:07:57.707Z,5764.00
2018-04-28T12:08:57.723Z,5696.00
2018-04-28T12:09:57.737Z,5508.00
2018-04-28T12:10:57.747Z,5232.00
2018-04-28T12:11:57.789Z,4972.00
2018-04-28T12:12:57.758Z,4804.00
2018-04-28T12:13:57.767Z,4652.00
2018-04-28T12:14:57.771Z,4540.00
2018-04-28T12:15:57.808Z,4436.00
2018-04-28T12:16:57.798Z,4340.00
2018-04-28T12:17:57.817Z,4312.00
2018-04-28T12:18:57.804Z,4276.00
2018-04-28T12:19:57.812Z,4232.00
2018-04-28T12:20:57.865Z,4220.00
2018-04-28T12:21:57.827Z,4196.00
2018-04-28T12:22:57.838Z,4176.00
2018-04-28T12:23:57.850Z,4172.00
2018-04-28T12:24:57.854Z,4324.00
2018-04-28T12:25:57.862Z,4584.00
2018-04-28T12:26:57.880Z,4920.00
2018-04-28T12:27:57.873Z,5360.00
2018-04-28T12:28:57.893Z,5772.00
2018-04-28T12:29:57.978Z,6176.00
2018-04-28T12:30:57.902Z,7276.00
2018-04-28T12:31:57.916Z,7012.00
2018-04-28T12:32:57.915Z,7160.00
2018-04-28T12:33:57.931Z,7180.00
2018-04-28T12:34:57.932Z,9156.00
2018-04-28T12:35:58.025Z,9032.00
2018-04-28T12:36:57.951Z,8560.00
2018-04-28T12:37:57.961Z,7812.00
2018-04-28T12:38:57.966Z,7312.00
2018-04-28T12:39:57.971Z,6956.00
2018-04-28T12:40:57.983Z,6404.00
2018-04-28T12:41:57.989Z,4752.00
2018-04-28T12:42:57.997Z,5012.00
2018-04-28T12:43:58.011Z,4852.00
2018-04-28T12:44:58.013Z,4580.00
2018-04-28T12:45:58.021Z,4408.00
2018-04-28T12:46:58.038Z,4244.00
2018-04-28T12:47:58.046Z,4040.00
2018-04-28T12:48:58.050Z,3904.00
2018-04-28T12:49:58.061Z,3904.00
2018-04-28T12:50:58.364Z,4032.00
2018-04-28T12:51:58.764Z,4180.00
2018-04-28T12:52:58.171Z,4256.00
2018-04-28T12:53:58.101Z,4412.00
2018-04-28T12:54:58.361Z,4748.00
2018-04-28T12:55:58.117Z,5028.00
2018-04-28T12:56:58.139Z,5344.00
2018-04-28T12:57:58.122Z,5652.00
2018-04-28T12:58:58.134Z,7324.00
2018-04-28T12:59:58.154Z,6104.00
2018-04-28T13:00:58.143Z,6268.00
2018-04-28T13:01:58.159Z,7312.00
2018-04-28T13:02:58.159Z,6892.00
2018-04-28T13:03:58.180Z,6564.00
2018-04-28T13:04:58.179Z,4968.00